createdAt,value
2023-03-13T00:00:01.509Z,98651.38
2023-03-13T00:03:03.171Z,98632.16
2023-03-13T00:06:04.997Z,98633.19
2023-03-13T00:09:12.415Z,98634.88
2023-03-13T00:12:14.051Z,98651.75
2023-03-13T00:15:15.771Z,98637.91
2023-03-13T00:18:17.595Z,98626.34
2023-03-13T00:21:21.634Z,98630.50
2023-03-13T00:24:23.207Z,98628.19
2023-03-13T00:27:25.080Z,98619.97
2023-03-13T00:30:26.860Z,98629.16
2023-03-13T00:33:28.976Z,98619.31
2023-03-13T00:36:33.299Z,98612.31
2023-03-13T00:39:36.596Z,98606.75
2023-03-13T00:42:38.263Z,98607.84
2023-03-13T00:45:39.871Z,98591.78
2023-03-13T00:48:41.615Z,98595.81
2023-03-13T00:51:43.194Z,98580.03
2023-03-13T00:54:44.837Z,98579.97
2023-03-13T00:57:46.495Z,98566.16
2023-03-13T01:00:48.157Z,98574.50
2023-03-13T01:03:52.491Z,98581.34
2023-03-13T01:06:54.078Z,98567.72
2023-03-13T01:09:55.766Z,98555.16
2023-03-13T01:12:57.330Z,98566.63
2023-03-13T01:16:08.302Z,98570.56
2023-03-13T01:19:16.212Z,98569.09
2023-03-13T01:22:17.836Z,98569.41
2023-03-13T01:25:19.389Z,98559.84
2023-03-13T01:28:23.393Z,98552.00
2023-03-13T01:31:31.464Z,98553.81
2023-03-13T01:34:33.946Z,98557.75
2023-03-13T01:37:35.629Z,98546.13
2023-03-13T01:40:43.898Z,98528.00
2023-03-13T01:43:46.116Z,98528.69
2023-03-13T01:46:48.764Z,98540.13
2023-03-13T01:50:09.903Z,98526.97
2023-03-13T01:53:31.877Z,98528.75
2023-03-13T01:56:45.260Z,98522.59
2023-03-13T01:59:53.777Z,98527.16
2023-03-13T02:02:59.706Z,98521.91
2023-03-13T02:06:02.540Z,98516.34
2023-03-13T02:09:10.119Z,98501.94
2023-03-13T02:12:16.364Z,98498.56
2023-03-13T02:15:21.014Z,98495.84
2023-03-13T02:18:22.975Z,98488.91
2023-03-13T02:21:43.715Z,98489.84
2023-03-13T02:25:06.201Z,98484.66
2023-03-13T02:28:13.541Z,98460.22
2023-03-13T02:31:16.399Z,98458.06
2023-03-13T02:34:24.176Z,98451.88
2023-03-13T02:37:28.677Z,98454.28
2023-03-13T02:40:38.898Z,98445.84
2023-03-13T02:43:40.792Z,98441.00
2023-03-13T02:46:52.450Z,98431.72
2023-03-13T02:49:57.825Z,98424.50
2023-03-13T02:53:05.562Z,98426.50
2023-03-13T02:56:07.586Z,98422.88
2023-03-13T02:59:10.217Z,98412.94
2023-03-13T03:02:14.856Z,98418.75
2023-03-13T03:05:16.659Z,98410.72
2023-03-13T03:08:18.366Z,98415.09
2023-03-13T03:11:19.995Z,98424.38
2023-03-13T03:14:27.139Z,98417.41
2023-03-13T03:17:28.905Z,98435.75
2023-03-13T03:20:30.596Z,98438.16
2023-03-13T03:23:35.996Z,98438.09
2023-03-13T03:26:37.858Z,98427.16
2023-03-13T03:29:45.924Z,98435.38
2023-03-13T03:32:47.654Z,98428.56
2023-03-13T03:35:50.032Z,98411.63
2023-03-13T03:38:52.022Z,98442.72
2023-03-13T03:41:58.610Z,98425.84
2023-03-13T03:45:01.529Z,98435.63
2023-03-13T03:48:03.339Z,98444.06
2023-03-13T03:51:05.813Z,98438.75
2023-03-13T03:54:10.269Z,98433.88
2023-03-13T03:57:12.126Z,98422.16
2023-03-13T04:00:19.701Z,98446.22
2023-03-13T04:03:27.550Z,98441.59
2023-03-13T04:06:30.391Z,98448.78
2023-03-13T04:09:32.373Z,98431.03
2023-03-13T04:12:35.900Z,98421.19
2023-03-13T04:15:39.959Z,98432.44
2023-03-13T04:18:43.772Z,98426.88
2023-03-13T04:21:46.024Z,98428.81
2023-03-13T04:24:51.675Z,98406.94
2023-03-13T04:27:55.196Z,98429.38
2023-03-13T04:31:01.343Z,98433.41
2023-03-13T04:34:26.585Z,98438.41
2023-03-13T04:37:41.997Z,98438.06
2023-03-13T04:41:14.249Z,98436.84
2023-03-13T04:44:26.418Z,98423.66
2023-03-13T04:47:38.536Z,98408.41
2023-03-13T04:51:06.427Z,98424.44
2023-03-13T04:54:26.693Z,98405.41
2023-03-13T04:57:57.601Z,98411.63
2023-03-13T05:01:09.171Z,98421.84
2023-03-13T05:04:29.528Z,98433.63
2023-03-13T05:07:49.260Z,98418.44
2023-03-13T05:11:10.412Z,98425.41
2023-03-13T05:14:33.548Z,98425.41
2023-03-13T05:18:01.517Z,98433.09
2023-03-13T05:21:12.987Z,98419.84
2023-03-13T05:24:35.627Z,98426.13
2023-03-13T05:27:49.046Z,98413.47
2023-03-13T05:31:10.929Z,98398.09
2023-03-13T05:34:35.592Z,98408.41
2023-03-13T05:37:46.281Z,98406.75
2023-03-13T05:41:02.716Z,98410.69
2023-03-13T05:44:23.017Z,98415.13
2023-03-13T05:47:47.740Z,98416.34
2023-03-13T05:51:15.240Z,98411.28
2023-03-13T05:54:49.128Z,98406.31
2023-03-13T05:58:14.938Z,98412.41
2023-03-13T06:01:39.395Z,98418.97
2023-03-13T06:04:50.529Z,98413.72
2023-03-13T06:07:52.669Z,98412.16
2023-03-13T06:10:54.942Z,98415.56
2023-03-13T06:13:56.643Z,98415.22
2023-03-13T06:17:05.076Z,98415.22
2023-03-13T06:20:07.306Z,98408.91
2023-03-13T06:23:09.096Z,98415.63
2023-03-13T06:26:11.034Z,98432.16
2023-03-13T06:29:12.671Z,98405.16
2023-03-13T06:32:14.349Z,98397.22
2023-03-13T06:35:16.126Z,98402.00
2023-03-13T06:38:17.785Z,98398.44
2023-03-13T06:41:19.454Z,98411.81
2023-03-13T06:44:21.116Z,98404.09
2023-03-13T06:47:22.827Z,98394.59
2023-03-13T06:50:24.393Z,98405.94
2023-03-13T06:53:26.151Z,98396.00
2023-03-13T06:56:27.809Z,98419.50
2023-03-13T06:59:29.437Z,98414.47
2023-03-13T07:02:31.065Z,98418.69
2023-03-13T07:05:32.661Z,98422.75
2023-03-13T07:08:35.633Z,98402.44
2023-03-13T07:11:37.227Z,98399.19
2023-03-13T07:14:38.972Z,98385.81
2023-03-13T07:17:40.650Z,98361.56
2023-03-13T07:20:42.373Z,98391.84
2023-03-13T07:23:44.035Z,98389.28
2023-03-13T07:26:58.104Z,98355.63
2023-03-13T07:30:07.026Z,98344.16
2023-03-13T07:33:08.655Z,98354.84
2023-03-13T07:36:11.229Z,98335.63
2023-03-13T07:39:12.990Z,98321.91
2023-03-13T07:42:14.600Z,98325.66
2023-03-13T07:45:16.374Z,98315.69
2023-03-13T07:48:18.666Z,98321.66
2023-03-13T07:51:36.849Z,98308.31
2023-03-13T07:54:42.342Z,98328.75
2023-03-13T07:57:43.929Z,98324.06
2023-03-13T08:00:45.512Z,98340.91
2023-03-13T08:03:50.622Z,98334.34
2023-03-13T08:06:52.388Z,98344.31
2023-03-13T08:09:53.986Z,98355.28
2023-03-13T08:12:55.574Z,98337.69
2023-03-13T08:16:07.836Z,98346.16
2023-03-13T08:19:10.460Z,98339.56
2023-03-13T08:22:12.110Z,98337.47
2023-03-13T08:25:15.005Z,98346.91
2023-03-13T08:28:16.541Z,98338.00
2023-03-13T08:31:21.642Z,98340.47
2023-03-13T08:34:23.245Z,98350.22
2023-03-13T08:37:24.963Z,98353.25
2023-03-13T08:40:26.512Z,98342.91
2023-03-13T08:43:28.345Z,98336.75
2023-03-13T08:46:32.263Z,98317.69
2023-03-13T08:49:34.101Z,98315.50
2023-03-13T08:52:35.737Z,98307.91
2023-03-13T08:55:37.439Z,98309.25
2023-03-13T08:58:39.259Z,98308.53
2023-03-13T09:01:41.237Z,98303.84
2023-03-13T09:04:42.802Z,98290.34
2023-03-13T09:07:44.462Z,98270.75
2023-03-13T09:10:46.081Z,98278.75
2023-03-13T09:13:49.968Z,98275.84
2023-03-13T09:16:51.595Z,98262.75
2023-03-13T09:20:00.109Z,98268.25
2023-03-13T09:23:02.014Z,98257.44
2023-03-13T09:26:04.560Z,98250.41
2023-03-13T09:29:06.198Z,98235.63
2023-03-13T09:32:09.683Z,98231.06
2023-03-13T09:35:11.236Z,98244.34
2023-03-13T09:38:13.116Z,98233.50
2023-03-13T09:41:17.738Z,98223.41
2023-03-13T09:44:25.763Z,98218.03
2023-03-13T09:47:38.611Z,98211.13
2023-03-13T09:50:47.744Z,98180.81
2023-03-13T09:53:59.437Z,98192.94
2023-03-13T09:57:13.009Z,98172.41
2023-03-13T10:00:19.952Z,98176.34
2023-03-13T10:03:27.668Z,98185.88
2023-03-13T10:06:34.713Z,98168.81
2023-03-13T10:09:37.360Z,98181.31
2023-03-13T10:12:45.600Z,98158.81
2023-03-13T10:15:55.169Z,98165.84
2023-03-13T10:18:59.947Z,98168.97
2023-03-13T10:22:03.913Z,98151.84
2023-03-13T10:25:21.216Z,98142.91
2023-03-13T10:28:22.995Z,98132.34
2023-03-13T10:31:33.109Z,98140.94
2023-03-13T10:34:57.985Z,98155.38
2023-03-13T10:38:15.387Z,98152.69
2023-03-13T10:41:31.055Z,98156.56
2023-03-13T10:44:33.571Z,98162.41
2023-03-13T10:47:37.911Z,98135.50
2023-03-13T10:50:44.409Z,98136.28
2023-03-13T10:53:46.157Z,98129.22
2023-03-13T10:56:48.161Z,98124.81
2023-03-13T10:59:52.010Z,98108.03
2023-03-13T11:02:54.641Z,98100.19
2023-03-13T11:05:58.279Z,98101.69
2023-03-13T11:09:02.969Z,98104.84
2023-03-13T11:12:20.122Z,98083.66
2023-03-13T11:15:34.725Z,98068.38
2023-03-13T11:18:58.286Z,98063.66
2023-03-13T11:22:15.056Z,98062.47
2023-03-13T11:25:51.687Z,98048.22
2023-03-13T11:29:08.049Z,98045.25
2023-03-13T11:32:26.670Z,98025.53
2023-03-13T11:35:46.771Z,98040.94
2023-03-13T11:38:54.005Z,98033.06
2023-03-13T11:42:19.844Z,98014.69
2023-03-13T11:46:04.242Z,98018.13
2023-03-13T11:49:24.534Z,97989.09
2023-03-13T11:52:53.984Z,97981.34
2023-03-13T11:56:16.155Z,97976.78
2023-03-13T11:59:47.740Z,97950.41
2023-03-13T12:03:05.802Z,97943.81
2023-03-13T12:06:28.022Z,97919.81
2023-03-13T12:09:41.547Z,97925.06
2023-03-13T12:13:02.026Z,97920.06
2023-03-13T12:16:12.307Z,97919.75
2023-03-13T12:19:29.911Z,97907.63
2023-03-13T12:22:49.477Z,97894.28
2023-03-13T12:26:04.816Z,97856.63
2023-03-13T12:29:14.974Z,97866.75
2023-03-13T12:32:28.126Z,97855.44
2023-03-13T12:35:33.446Z,97848.88
2023-03-13T12:38:44.113Z,97837.13
2023-03-13T12:42:14.125Z,97833.13
2023-03-13T12:45:20.311Z,97815.72
2023-03-13T12:48:28.692Z,97811.38
2023-03-13T12:52:08.120Z,97816.28
2023-03-13T12:55:35.277Z,97801.91
2023-03-13T12:58:39.971Z,97793.13
2023-03-13T13:01:52.716Z,97773.16
2023-03-13T13:04:56.689Z,97769.84
2023-03-13T13:07:58.446Z,97740.84
2023-03-13T13:11:34.629Z,97754.41
2023-03-13T13:14:48.027Z,97746.47
2023-03-13T13:17:55.022Z,97717.72
2023-03-13T13:21:05.840Z,97726.00
2023-03-13T13:24:39.693Z,97706.59
2023-03-13T13:27:41.254Z,97714.25
2023-03-13T13:30:42.960Z,97695.78
2023-03-13T13:33:44.739Z,97684.75
2023-03-13T13:36:46.624Z,97705.22
2023-03-13T13:39:53.609Z,97680.03
2023-03-13T13:42:59.702Z,97678.91
2023-03-13T13:46:03.209Z,97668.38
2023-03-13T13:49:04.763Z,97657.88
2023-03-13T13:52:06.325Z,97655.91
2023-03-13T13:55:26.244Z,97638.75
2023-03-13T13:58:31.048Z,97632.41
2023-03-13T14:01:34.123Z,97640.78
2023-03-13T14:04:44.979Z,97615.78
2023-03-13T14:07:53.238Z,97604.09
2023-03-13T14:11:19.288Z,97602.53
2023-03-13T14:14:22.037Z,97610.78
2023-03-13T14:17:23.741Z,97594.16
2023-03-13T14:20:29.144Z,97596.50
2023-03-13T14:23:43.881Z,97589.16
2023-03-13T14:26:46.058Z,97603.00
2023-03-13T14:30:06.935Z,97593.34
2023-03-13T14:33:08.563Z,97582.25
2023-03-13T14:36:12.196Z,97570.41
2023-03-13T14:39:32.631Z,97552.56
2023-03-13T14:42:40.415Z,97542.53
2023-03-13T14:45:42.148Z,97534.31
2023-03-13T14:48:44.323Z,97525.66
2023-03-13T14:51:59.013Z,97516.31
2023-03-13T14:55:09.013Z,97516.41
2023-03-13T14:58:19.751Z,97511.34
2023-03-13T15:01:26.891Z,97480.22
2023-03-13T15:05:02.001Z,97490.34
2023-03-13T15:08:04.347Z,97482.31
2023-03-13T15:11:35.064Z,97482.66
2023-03-13T15:14:42.629Z,97478.47
2023-03-13T15:17:44.833Z,97451.16
2023-03-13T15:20:58.751Z,97445.22
2023-03-13T15:24:15.149Z,97434.78
2023-03-13T15:27:19.165Z,97403.78
2023-03-13T15:30:23.685Z,97403.75
2023-03-13T15:33:29.159Z,97380.69
2023-03-13T15:36:32.051Z,97375.84
2023-03-13T15:39:33.643Z,97369.16
2023-03-13T15:42:35.209Z,97343.09
2023-03-13T15:45:38.674Z,97334.41
2023-03-13T15:48:42.116Z,97327.28
2023-03-13T15:51:43.770Z,97316.00
2023-03-13T15:54:49.786Z,97339.56
2023-03-13T15:57:51.411Z,97326.28
2023-03-13T16:00:53.315Z,97302.53
2023-03-13T16:03:54.934Z,97301.31
2023-03-13T16:06:58.047Z,97298.53
2023-03-13T16:09:59.681Z,97282.06
2023-03-13T16:13:03.516Z,97290.31
2023-03-13T16:16:36.871Z,97291.84
2023-03-13T16:19:38.704Z,97270.78
2023-03-13T16:22:40.276Z,97280.84
2023-03-13T16:25:41.890Z,97279.41
2023-03-13T16:28:43.948Z,97279.41
2023-03-13T16:31:45.663Z,97284.97
2023-03-13T16:34:47.254Z,97282.66
2023-03-13T16:37:50.785Z,97279.69
2023-03-13T16:40:52.416Z,97251.88
2023-03-13T16:43:54.727Z,97269.63
2023-03-13T16:47:05.647Z,97276.41
2023-03-13T16:50:18.942Z,97269.38
2023-03-13T16:53:20.540Z,97265.25
2023-03-13T16:56:24.967Z,97243.63
2023-03-13T16:59:26.772Z,97225.59
2023-03-13T17:02:29.624Z,97230.38
2023-03-13T17:05:31.340Z,97219.06
2023-03-13T17:08:32.977Z,97233.31
2023-03-13T17:11:34.612Z,97214.81
2023-03-13T17:14:36.859Z,97215.06
2023-03-13T17:17:39.406Z,97199.59
2023-03-13T17:20:41.145Z,97195.06
2023-03-13T17:23:42.711Z,97176.56
2023-03-13T17:26:44.428Z,97174.44
2023-03-13T17:29:46.140Z,97176.13
2023-03-13T17:32:50.214Z,97190.78
2023-03-13T17:35:51.934Z,97172.03
2023-03-13T17:38:56.218Z,97186.63
2023-03-13T17:42:00.219Z,97247.00
2023-03-13T17:45:01.840Z,97327.19
2023-03-13T17:48:03.611Z,97372.25
2023-03-13T17:51:05.345Z,97308.00
2023-03-13T17:54:08.338Z,97208.47
2023-03-13T17:57:16.557Z,97196.94
2023-03-13T18:00:29.120Z,97219.72
2023-03-13T18:03:30.760Z,97231.25
2023-03-13T18:06:38.846Z,97260.19
2023-03-13T18:09:40.489Z,97268.13
2023-03-13T18:12:42.491Z,97281.88
2023-03-13T18:15:44.084Z,97272.69
2023-03-13T18:18:46.577Z,97268.53
2023-03-13T18:21:49.577Z,97232.91
2023-03-13T18:24:51.460Z,97229.94
2023-03-13T18:27:53.036Z,97216.44
2023-03-13T18:30:54.609Z,97217.97
2023-03-13T18:33:57.765Z,97229.66
2023-03-13T18:37:03.633Z,97227.34
2023-03-13T18:40:17.277Z,97202.97
2023-03-13T18:43:19.003Z,97204.22
2023-03-13T18:46:31.353Z,97234.03
2023-03-13T18:49:32.952Z,97230.59
2023-03-13T18:52:34.548Z,97212.38
2023-03-13T18:55:36.125Z,97257.34
2023-03-13T18:58:37.845Z,97318.59
2023-03-13T19:01:39.401Z,97403.88
2023-03-13T19:04:41.525Z,97399.19
2023-03-13T19:07:43.538Z,97490.28
2023-03-13T19:10:45.178Z,97482.88
2023-03-13T19:13:46.917Z,97500.28
2023-03-13T19:16:52.895Z,97553.69
2023-03-13T19:19:57.342Z,97567.84
2023-03-13T19:23:00.696Z,97551.94
2023-03-13T19:26:02.440Z,97683.91
2023-03-13T19:29:06.292Z,97688.50
2023-03-13T19:32:13.658Z,97736.44
2023-03-13T19:35:18.773Z,97715.75
2023-03-13T19:38:23.548Z,97694.66
2023-03-13T19:41:25.185Z,97657.91
2023-03-13T19:44:26.712Z,97651.34
2023-03-13T19:47:29.335Z,97662.94
2023-03-13T19:50:31.612Z,97663.94
2023-03-13T19:53:34.636Z,97641.81
2023-03-13T19:56:36.663Z,97628.75
2023-03-13T19:59:40.029Z,97633.75
2023-03-13T20:02:41.744Z,97638.06
2023-03-13T20:05:43.308Z,97656.16
2023-03-13T20:08:46.288Z,97641.91
2023-03-13T20:11:47.989Z,97643.88
2023-03-13T20:14:49.914Z,97596.91
2023-03-13T20:17:51.875Z,97550.78
2023-03-13T20:20:53.430Z,97528.97
2023-03-13T20:23:55.232Z,97515.94
2023-03-13T20:26:56.859Z,97512.38
2023-03-13T20:29:58.484Z,97548.19
2023-03-13T20:33:00.271Z,97558.28
2023-03-13T20:36:08.322Z,97564.75
2023-03-13T20:39:09.887Z,97552.63
2023-03-13T20:42:11.633Z,97541.31
2023-03-13T20:45:13.224Z,97522.66
2023-03-13T20:48:15.267Z,97514.81
2023-03-13T20:51:17.160Z,97523.84
2023-03-13T20:54:19.216Z,97539.94
2023-03-13T20:57:21.171Z,97532.06
2023-03-13T21:00:23.327Z,97583.59
2023-03-13T21:03:25.105Z,97564.06
2023-03-13T21:06:27.320Z,97549.03
2023-03-13T21:09:29.391Z,97520.28
2023-03-13T21:12:31.020Z,97508.16
2023-03-13T21:15:33.046Z,97502.84
2023-03-13T21:18:34.914Z,97528.78
2023-03-13T21:21:36.944Z,97538.75
2023-03-13T21:24:38.652Z,97508.66
2023-03-13T21:27:40.419Z,97509.63
2023-03-13T21:30:42.429Z,97546.16
2023-03-13T21:33:45.656Z,97540.06
2023-03-13T21:36:47.428Z,97496.22
2023-03-13T21:39:53.253Z,97471.66
2023-03-13T21:42:54.857Z,97464.91
2023-03-13T21:45:59.568Z,97471.25
2023-03-13T21:49:01.166Z,97499.47
2023-03-13T21:52:03.426Z,97490.06
2023-03-13T21:55:07.578Z,97513.00
2023-03-13T21:58:09.168Z,97503.88
2023-03-13T22:01:11.739Z,97493.31
2023-03-13T22:04:13.833Z,97495.94
2023-03-13T22:07:15.412Z,97499.28
2023-03-13T22:10:17.169Z,97500.09
2023-03-13T22:13:18.802Z,97509.53
2023-03-13T22:16:21.204Z,97518.63
2023-03-13T22:19:23.173Z,97519.88
2023-03-13T22:22:25.626Z,97514.47
2023-03-13T22:25:27.158Z,97509.19
2023-03-13T22:28:28.745Z,97486.88
2023-03-13T22:31:30.629Z,97467.06
2023-03-13T22:34:32.435Z,97439.69
2023-03-13T22:37:34.032Z,97431.72
2023-03-13T22:40:35.569Z,97437.03
2023-03-13T22:43:37.159Z,97431.53
2023-03-13T22:46:38.837Z,97481.28
2023-03-13T22:49:41.019Z,97491.34
2023-03-13T22:52:43.053Z,97469.03
2023-03-13T22:55:44.651Z,97490.19
2023-03-13T22:58:46.562Z,97485.66
2023-03-13T23:01:48.356Z,97502.25
2023-03-13T23:04:50.005Z,97491.81
2023-03-13T23:07:51.578Z,97491.66
2023-03-13T23:10:53.158Z,97507.19
2023-03-13T23:13:54.736Z,97513.00
2023-03-13T23:16:56.928Z,97494.47
2023-03-13T23:20:01.111Z,97492.25
2023-03-13T23:23:02.754Z,97505.50
2023-03-13T23:26:07.287Z,97512.75
2023-03-13T23:29:09.015Z,97526.59
2023-03-13T23:32:10.558Z,97504.75
2023-03-13T23:35:13.384Z,97515.56
2023-03-13T23:38:18.347Z,97528.75
2023-03-13T23:41:20.877Z,97534.47
2023-03-13T23:44:22.398Z,97525.69
2023-03-13T23:47:24.086Z,97508.63
2023-03-13T23:50:25.775Z,97516.81
2023-03-13T23:53:27.285Z,97521.84
2023-03-13T23:56:30.484Z,97519.38
2023-03-13T23:59:32.776Z,97516.38
